createdAt,value
2023-08-16T00:00:05.139Z,101353.22
2023-08-16T00:02:31.917Z,101347.69
2023-08-16T00:04:58.598Z,101328.81
2023-08-16T00:07:25.710Z,101336.78
2023-08-16T00:09:55.565Z,101325.03
2023-08-16T00:12:23.381Z,101319.47
2023-08-16T00:14:50.151Z,101334.28
2023-08-16T00:17:16.688Z,101312.13
2023-08-16T00:19:43.710Z,101323.41
2023-08-16T00:22:10.319Z,101317.84
2023-08-16T00:24:37.034Z,101320.31
2023-08-16T00:27:04.454Z,101323.59
2023-08-16T00:29:31.220Z,101324.25
2023-08-16T00:31:59.073Z,101320.75
2023-08-16T00:34:25.673Z,101315.00
2023-08-16T00:36:52.447Z,101307.69
2023-08-16T00:39:19.200Z,101297.25
2023-08-16T00:41:45.796Z,101285.28
2023-08-16T00:44:12.388Z,101282.84
2023-08-16T00:46:39.255Z,101270.94
2023-08-16T00:49:06.054Z,101286.53
2023-08-16T00:51:32.776Z,101283.47
2023-08-16T00:53:59.469Z,101262.16
2023-08-16T00:56:26.193Z,101266.84
2023-08-16T00:58:56.050Z,101248.78
2023-08-16T01:01:22.836Z,101243.16
2023-08-16T01:03:51.954Z,101258.28
2023-08-16T01:06:18.709Z,101254.16
2023-08-16T01:08:45.371Z,101245.25
2023-08-16T01:11:20.489Z,101222.97
2023-08-16T01:13:58.249Z,101241.66
2023-08-16T01:16:29.134Z,101241.94
2023-08-16T01:18:57.697Z,101232.31
2023-08-16T01:21:25.687Z,101213.25
2023-08-16T01:24:00.390Z,101210.00
2023-08-16T01:26:40.266Z,101162.44
2023-08-16T01:29:09.072Z,101182.25
2023-08-16T01:31:36.355Z,101177.09
2023-08-16T01:34:06.485Z,101181.09
2023-08-16T01:36:35.922Z,101193.63
2023-08-16T01:39:02.941Z,101176.97
2023-08-16T01:41:39.977Z,101196.00
2023-08-16T01:44:08.970Z,101197.16
2023-08-16T01:46:39.138Z,101184.22
2023-08-16T01:49:08.228Z,101182.53
2023-08-16T01:51:35.080Z,101186.63
2023-08-16T01:54:01.836Z,101194.81
2023-08-16T01:56:30.907Z,101184.34
2023-08-16T01:58:57.770Z,101191.69
2023-08-16T02:01:24.817Z,101178.91
2023-08-16T02:03:51.578Z,101174.41
2023-08-16T02:06:18.678Z,101201.53
2023-08-16T02:08:45.459Z,101198.88
2023-08-16T02:11:12.413Z,101160.69
2023-08-16T02:13:39.408Z,101170.69
2023-08-16T02:16:08.542Z,101175.59
2023-08-16T02:21:15.087Z,101173.59
2023-08-16T02:23:41.714Z,101164.16
2023-08-16T02:26:08.336Z,101166.38
2023-08-16T02:28:35.622Z,101168.47
2023-08-16T02:31:06.500Z,101159.28
2023-08-16T02:33:40.571Z,101160.53
2023-08-16T02:36:07.243Z,101143.69
2023-08-16T02:38:36.189Z,101151.91
2023-08-16T02:41:02.970Z,101147.97
2023-08-16T02:43:29.641Z,101131.84
2023-08-16T02:45:57.001Z,101129.56
2023-08-16T02:48:23.656Z,101121.31
2023-08-16T02:50:50.540Z,101138.13
2023-08-16T02:53:17.879Z,101149.94
2023-08-16T02:55:44.632Z,101137.00
2023-08-16T02:58:11.384Z,101143.78
2023-08-16T03:00:39.827Z,101135.91
2023-08-16T03:03:07.553Z,101138.78
2023-08-16T03:05:34.322Z,101143.63
2023-08-16T03:08:00.981Z,101141.38
2023-08-16T03:10:27.606Z,101135.25
2023-08-16T03:12:54.300Z,101138.31
2023-08-16T03:15:21.091Z,101120.38
2023-08-16T03:17:47.845Z,101118.81
2023-08-16T03:20:14.892Z,101110.66
2023-08-16T03:22:45.168Z,101109.47
2023-08-16T03:27:54.187Z,101089.69
2023-08-16T03:30:20.945Z,101093.78
2023-08-16T03:32:50.852Z,101080.06
2023-08-16T03:35:21.494Z,101030.88
2023-08-16T03:37:48.249Z,100991.47
2023-08-16T03:40:16.368Z,100979.09
2023-08-16T03:43:01.442Z,100972.94
2023-08-16T03:45:40.777Z,100987.66
2023-08-16T03:48:16.866Z,100991.75
2023-08-16T03:50:52.920Z,100983.34
2023-08-16T03:53:56.556Z,100981.13
2023-08-16T03:59:11.811Z,100961.31
2023-08-16T04:01:47.518Z,100961.94
2023-08-16T04:08:11.574Z,100938.84
2023-08-16T04:11:02.862Z,100944.56
2023-08-16T04:14:15.770Z,100929.50
2023-08-16T04:16:59.966Z,100925.88
2023-08-16T04:19:26.531Z,100945.56
2023-08-16T04:21:58.761Z,100941.00
2023-08-16T04:24:25.477Z,100941.69
2023-08-16T04:26:52.160Z,100914.91
2023-08-16T04:29:19.331Z,100919.44
2023-08-16T04:31:46.238Z,100909.41
2023-08-16T04:34:19.836Z,100917.59
2023-08-16T04:37:12.582Z,100918.34
2023-08-16T04:39:49.714Z,100912.66
2023-08-16T04:42:16.585Z,101511.81
2023-08-16T04:45:12.771Z,101488.63
2023-08-16T04:47:45.312Z,101498.72
2023-08-16T04:50:12.054Z,101489.00
2023-08-16T04:52:39.022Z,101477.66
2023-08-16T04:55:06.839Z,101476.47
2023-08-16T04:57:34.825Z,101469.94
2023-08-16T05:00:05.036Z,101463.28
2023-08-16T05:02:34.148Z,101456.56
2023-08-16T05:05:01.171Z,101453.09
2023-08-16T05:07:27.823Z,101446.13
2023-08-16T05:10:01.491Z,101449.69
2023-08-16T05:12:30.950Z,101439.72
2023-08-16T05:14:57.781Z,101446.66
2023-08-16T05:17:25.752Z,101450.22
2023-08-16T05:20:14.376Z,101452.06
2023-08-16T05:23:19.542Z,101447.13
2023-08-16T05:25:47.474Z,101448.88
2023-08-16T05:28:39.295Z,101452.16
2023-08-16T05:31:11.280Z,101443.75
2023-08-16T05:33:39.708Z,101421.50
2023-08-16T05:36:11.110Z,101439.19
2023-08-16T05:38:37.721Z,101445.28
2023-08-16T05:41:11.911Z,101452.47
2023-08-16T05:43:38.832Z,101438.66
2023-08-16T05:46:08.074Z,101449.16
2023-08-16T05:48:37.525Z,101443.59
2023-08-16T05:54:51.050Z,101441.19
2023-08-16T05:57:28.948Z,101447.13
2023-08-16T06:00:01.687Z,101431.81
2023-08-16T06:02:30.692Z,101440.66
2023-08-16T06:05:00.227Z,101443.13
2023-08-16T06:07:27.742Z,101433.44
2023-08-16T06:09:54.590Z,101432.00
2023-08-16T06:12:21.759Z,101428.03
2023-08-16T06:17:31.082Z,101415.34
2023-08-16T06:19:57.876Z,101421.63
2023-08-16T06:22:24.574Z,101416.56
2023-08-16T06:24:54.689Z,101421.53
2023-08-16T06:27:22.039Z,101404.78
2023-08-16T06:29:49.045Z,101414.91
2023-08-16T06:32:16.033Z,101411.72
2023-08-16T06:34:42.748Z,101401.06
2023-08-16T06:37:09.441Z,101402.28
2023-08-16T06:39:36.200Z,101369.06
2023-08-16T06:42:06.698Z,101375.00
2023-08-16T06:44:34.519Z,101374.34
2023-08-16T06:47:01.207Z,101355.25
2023-08-16T06:49:27.903Z,101344.50
2023-08-16T06:51:54.538Z,101342.53
2023-08-16T06:54:21.233Z,101344.28
2023-08-16T06:56:59.708Z,101345.19
2023-08-16T06:59:28.587Z,101316.34
2023-08-16T07:01:55.351Z,101308.44
2023-08-16T07:04:24.900Z,101319.16
2023-08-16T07:06:51.761Z,101351.16
2023-08-16T07:09:23.404Z,101353.22
2023-08-16T07:11:52.832Z,101376.53
2023-08-16T07:14:25.160Z,101385.69
2023-08-16T07:16:54.678Z,101389.88
2023-08-16T07:19:23.878Z,101397.91
2023-08-16T07:21:50.964Z,101429.28
2023-08-16T07:24:17.651Z,101440.44
2023-08-16T07:26:46.624Z,101478.78
2023-08-16T07:29:13.351Z,101496.28
2023-08-16T07:31:40.057Z,101528.34
2023-08-16T07:34:07.026Z,101534.75
2023-08-16T07:36:35.053Z,101569.50
2023-08-16T07:39:02.238Z,101559.81
2023-08-16T07:41:29.069Z,101522.09
2023-08-16T07:43:59.476Z,101171.56
2023-08-16T07:46:27.084Z,101126.13
2023-08-16T07:48:54.110Z,101194.53
2023-08-16T07:51:22.015Z,101270.06
2023-08-16T07:53:48.823Z,101343.16
2023-08-16T07:56:15.505Z,101416.09
2023-08-16T07:58:44.320Z,101523.94
2023-08-16T08:01:17.498Z,101614.41
2023-08-16T08:03:44.231Z,101699.41
2023-08-16T08:06:11.040Z,101793.41
2023-08-16T08:08:37.738Z,101853.69
2023-08-16T08:11:07.825Z,101908.50
2023-08-16T08:13:34.493Z,101979.19
2023-08-16T08:16:01.904Z,102011.47
2023-08-16T08:18:28.565Z,102048.34
2023-08-16T08:20:58.334Z,102070.13
2023-08-16T08:23:24.974Z,102111.00
2023-08-16T08:25:51.757Z,102139.66
2023-08-16T08:28:19.730Z,102162.41
2023-08-16T08:30:46.287Z,102182.97
2023-08-16T08:33:12.956Z,102210.03
2023-08-16T08:35:44.486Z,102222.25
2023-08-16T08:38:11.614Z,102241.53
2023-08-16T08:40:38.253Z,102240.28
2023-08-16T08:43:07.342Z,102275.47
2023-08-16T08:45:35.642Z,102283.94
2023-08-16T08:48:02.990Z,102300.41
2023-08-16T08:50:29.923Z,102294.88
2023-08-16T08:52:57.828Z,102302.19
2023-08-16T08:55:30.017Z,102309.25
2023-08-16T08:58:03.120Z,102332.84
2023-08-16T09:00:33.170Z,102321.41
2023-08-16T09:03:06.397Z,102305.19
2023-08-16T09:05:34.154Z,102315.00
2023-08-16T09:08:01.852Z,102310.97
2023-08-16T09:10:28.435Z,102313.06
2023-08-16T09:12:55.905Z,102308.63
2023-08-16T09:15:22.889Z,102310.69
2023-08-16T09:17:52.119Z,102301.38
2023-08-16T09:20:19.461Z,102311.00
2023-08-16T09:22:48.890Z,102308.03
2023-08-16T09:25:18.160Z,102305.56
2023-08-16T09:27:44.834Z,102311.63
2023-08-16T09:30:14.746Z,102313.44
2023-08-16T09:32:41.448Z,102322.06
2023-08-16T09:35:13.742Z,102325.41
2023-08-16T09:37:40.953Z,102317.78
2023-08-16T09:40:08.174Z,102312.78
2023-08-16T09:42:35.179Z,102302.03
2023-08-16T09:45:04.321Z,102320.84
2023-08-16T09:50:07.194Z,102311.00
2023-08-16T09:52:36.045Z,102318.50
2023-08-16T09:55:03.861Z,102321.53
2023-08-16T09:57:31.513Z,102314.44
2023-08-16T09:59:58.393Z,102307.59
2023-08-16T10:07:26.961Z,102318.78
2023-08-16T10:09:54.508Z,102324.16
2023-08-16T10:12:21.918Z,102326.81
2023-08-16T10:14:48.495Z,102331.03
2023-08-16T10:17:17.825Z,102333.66
2023-08-16T10:19:48.648Z,102333.25
2023-08-16T10:22:35.350Z,102322.66
2023-08-16T10:25:14.373Z,102322.72
2023-08-16T10:27:45.588Z,102325.34
2023-08-16T10:30:25.378Z,102327.06
2023-08-16T10:33:06.160Z,102296.44
2023-08-16T10:35:36.152Z,102318.47
2023-08-16T10:38:03.168Z,102313.31
2023-08-16T10:43:04.614Z,102327.59
2023-08-16T10:48:14.598Z,102322.06
2023-08-16T10:50:41.806Z,102320.16
2023-08-16T10:53:09.203Z,102323.91
2023-08-16T10:55:36.917Z,102315.75
2023-08-16T10:58:03.716Z,102317.28
2023-08-16T11:00:37.487Z,102313.84
2023-08-16T11:03:07.061Z,102322.81
2023-08-16T11:05:35.153Z,102329.88
2023-08-16T11:08:02.867Z,102326.03
2023-08-16T11:10:38.896Z,102323.59
2023-08-16T11:13:11.870Z,102320.63
2023-08-16T11:15:40.033Z,102322.00
2023-08-16T11:18:10.184Z,102323.66
2023-08-16T11:20:37.970Z,102314.84
2023-08-16T11:23:04.846Z,102322.53
2023-08-16T11:25:34.954Z,102319.84
2023-08-16T11:28:05.416Z,102322.84
2023-08-16T11:30:32.902Z,102321.69
2023-08-16T11:33:00.518Z,102320.34
2023-08-16T11:35:27.250Z,102314.94
2023-08-16T11:37:54.004Z,102308.41
2023-08-16T11:40:23.696Z,102300.47
2023-08-16T11:42:52.025Z,102308.81
2023-08-16T11:45:20.482Z,102300.41
2023-08-16T11:47:53.171Z,102310.03
2023-08-16T11:50:20.868Z,102299.66
2023-08-16T11:53:00.975Z,102290.38
2023-08-16T11:55:30.912Z,102292.31
2023-08-16T11:58:11.106Z,102287.66
2023-08-16T12:00:38.112Z,102291.72
2023-08-16T12:03:08.451Z,102292.00
2023-08-16T12:05:39.790Z,102283.81
2023-08-16T12:08:08.065Z,102293.38
2023-08-16T12:10:36.316Z,102292.56
2023-08-16T12:13:14.118Z,102289.31
2023-08-16T12:15:42.694Z,102305.56
2023-08-16T12:18:09.565Z,102298.25
2023-08-16T12:20:37.139Z,102288.69
2023-08-16T12:23:04.072Z,102279.75
2023-08-16T12:25:30.743Z,102281.09
2023-08-16T12:27:57.392Z,102284.09
2023-08-16T12:30:24.103Z,102280.59
2023-08-16T12:32:50.817Z,102274.59
2023-08-16T12:35:17.664Z,102269.41
2023-08-16T12:37:45.389Z,102274.72
2023-08-16T12:40:13.738Z,102274.84
2023-08-16T12:42:41.628Z,102277.03
2023-08-16T12:45:09.785Z,102273.47
2023-08-16T12:47:36.843Z,102260.81
2023-08-16T12:50:03.679Z,102263.28
2023-08-16T12:52:30.360Z,102263.50
2023-08-16T12:54:56.978Z,102266.00
2023-08-16T12:57:26.359Z,102267.66
2023-08-16T12:59:54.533Z,102259.25
2023-08-16T13:02:36.362Z,102261.97
2023-08-16T13:05:12.463Z,102266.13
2023-08-16T13:10:23.156Z,102274.75
2023-08-16T13:18:19.220Z,102267.41
2023-08-16T13:25:37.335Z,102256.59
2023-08-16T13:28:18.377Z,102261.72
2023-08-16T13:30:49.591Z,102247.47
2023-08-16T13:35:51.070Z,102248.38
2023-08-16T13:38:18.300Z,102251.66
2023-08-16T13:43:25.341Z,102247.88
2023-08-16T13:45:53.186Z,102258.22
2023-08-16T13:48:19.975Z,102257.06
2023-08-16T13:50:46.969Z,102258.09
2023-08-16T13:53:16.578Z,102261.81
2023-08-16T13:55:45.982Z,102257.91
2023-08-16T13:58:13.052Z,102255.66
2023-08-16T14:00:39.641Z,102253.41
2023-08-16T14:03:06.509Z,102252.81
2023-08-16T14:05:33.329Z,102248.91
2023-08-16T14:07:59.896Z,102247.25
2023-08-16T14:10:26.677Z,102242.41
2023-08-16T14:12:53.366Z,102248.94
2023-08-16T14:15:20.074Z,102241.81
2023-08-16T14:17:46.943Z,102248.00
2023-08-16T14:20:13.610Z,102246.84
2023-08-16T14:22:40.308Z,102246.44
2023-08-16T14:25:09.324Z,102248.84
2023-08-16T14:27:36.065Z,102251.09
2023-08-16T14:30:02.731Z,102239.72
2023-08-16T14:32:29.484Z,102248.16
2023-08-16T14:34:57.431Z,102241.09
2023-08-16T14:37:24.495Z,102248.91
2023-08-16T14:39:51.065Z,102241.94
2023-08-16T14:42:20.745Z,102240.50
2023-08-16T14:44:47.991Z,102237.31
2023-08-16T14:47:14.678Z,102246.88
2023-08-16T14:49:41.546Z,102221.34
2023-08-16T14:52:11.095Z,102227.44
2023-08-16T14:54:37.795Z,102242.75
2023-08-16T14:57:04.605Z,102243.78
2023-08-16T14:59:31.172Z,102243.84
2023-08-16T15:01:57.837Z,102244.78
2023-08-16T15:04:27.069Z,102243.56
2023-08-16T15:06:53.987Z,102254.94
2023-08-16T15:09:20.793Z,102251.72
2023-08-16T15:11:47.423Z,102254.09
2023-08-16T15:14:14.107Z,102251.88
2023-08-16T15:16:40.801Z,102250.25
2023-08-16T15:19:07.520Z,102242.72
2023-08-16T15:21:36.109Z,102226.25
2023-08-16T15:24:05.918Z,102240.88
2023-08-16T15:26:32.654Z,102233.94
2023-08-16T15:28:59.131Z,102242.63
2023-08-16T15:31:25.897Z,102246.69
2023-08-16T15:33:52.859Z,102232.09
2023-08-16T15:36:19.529Z,102228.28
2023-08-16T15:38:51.317Z,102241.91
2023-08-16T15:41:19.638Z,102223.81
2023-08-16T15:43:49.384Z,102226.97
2023-08-16T15:46:16.026Z,102225.44
2023-08-16T15:48:42.786Z,102229.06
2023-08-16T15:51:09.522Z,102240.22
2023-08-16T15:53:36.375Z,102224.16
2023-08-16T15:56:06.041Z,102228.81
2023-08-16T15:58:32.959Z,102221.50
2023-08-16T16:01:04.044Z,102212.53
2023-08-16T16:03:35.305Z,102216.38
2023-08-16T16:06:04.144Z,102206.69
2023-08-16T16:08:32.812Z,102209.97
2023-08-16T16:10:59.908Z,102197.69
2023-08-16T16:13:27.029Z,102199.38
2023-08-16T16:15:53.766Z,102213.16
2023-08-16T16:18:22.428Z,102192.84
2023-08-16T16:20:49.370Z,102201.88
2023-08-16T16:23:16.019Z,102209.44
2023-08-16T16:25:42.652Z,102203.44
2023-08-16T16:28:09.473Z,102205.03
2023-08-16T16:30:36.216Z,102189.69
2023-08-16T16:33:03.305Z,102198.69
2023-08-16T16:35:30.121Z,102187.53
2023-08-16T16:37:57.525Z,102195.41
2023-08-16T16:40:24.348Z,102196.34
2023-08-16T16:42:51.952Z,102164.31
2023-08-16T16:45:21.506Z,102196.91
2023-08-16T16:47:51.848Z,102178.91
2023-08-16T16:50:22.026Z,102174.84
2023-08-16T16:52:54.227Z,102181.00
2023-08-16T16:55:26.365Z,102196.25
2023-08-16T16:57:58.043Z,102192.72
2023-08-16T17:00:46.983Z,102200.16
2023-08-16T17:03:22.158Z,102188.75
2023-08-16T17:05:54.023Z,102192.94
2023-08-16T17:08:25.728Z,102185.25
2023-08-16T17:10:58.224Z,102181.50
2023-08-16T17:13:36.418Z,102180.56
2023-08-16T17:16:05.300Z,102180.63
2023-08-16T17:18:34.946Z,102185.03
2023-08-16T17:21:22.287Z,102179.38
2023-08-16T17:23:54.628Z,102182.72
2023-08-16T17:26:30.477Z,102175.84
2023-08-16T17:29:02.884Z,102174.03
2023-08-16T17:31:49.633Z,102172.16
2023-08-16T17:34:26.885Z,102166.34
2023-08-16T17:37:01.017Z,102163.66
2023-08-16T17:39:30.613Z,102175.16
2023-08-16T17:41:57.468Z,102176.50
2023-08-16T17:44:31.625Z,102164.41
2023-08-16T17:49:53.997Z,102174.41
2023-08-16T17:52:25.708Z,102162.09
2023-08-16T17:54:58.573Z,102159.63
2023-08-16T17:57:28.390Z,102170.66
2023-08-16T17:59:55.096Z,102141.09
2023-08-16T18:02:32.068Z,102150.94
2023-08-16T18:05:47.980Z,102159.75
2023-08-16T18:18:27.895Z,102144.47
2023-08-16T18:21:00.894Z,102148.34
2023-08-16T18:36:35.948Z,102164.56
2023-08-16T18:51:00.044Z,102158.00
2023-08-16T18:53:26.733Z,102152.72
2023-08-16T19:00:50.471Z,102169.50
2023-08-16T19:03:17.165Z,102153.94
2023-08-16T19:12:39.773Z,102131.38
2023-08-16T19:15:08.111Z,102140.25
2023-08-16T19:17:51.421Z,102137.44
2023-08-16T19:20:27.000Z,102136.22
2023-08-16T19:22:54.192Z,102143.69
2023-08-16T19:25:20.919Z,102137.91
2023-08-16T19:31:22.880Z,102102.84
2023-08-16T19:34:01.006Z,102095.66
2023-08-16T19:36:27.710Z,102098.34
2023-08-16T19:38:55.215Z,102105.75
2023-08-16T19:41:21.841Z,102092.16
2023-08-16T19:46:43.590Z,102085.97
2023-08-16T19:52:39.483Z,102062.91
2023-08-16T20:01:38.602Z,102058.97
2023-08-16T20:04:25.261Z,102028.84
2023-08-16T20:07:07.110Z,102012.97
2023-08-16T20:13:27.926Z,102030.69
2023-08-16T20:16:15.189Z,102028.84
2023-08-16T20:25:21.494Z,101986.59
2023-08-16T20:28:00.279Z,101982.25
2023-08-16T20:31:00.021Z,101968.03
2023-08-16T20:40:29.074Z,101891.03
2023-08-16T20:43:21.960Z,101868.00
2023-08-16T20:45:48.633Z,101856.25
2023-08-16T20:48:28.611Z,101844.50
2023-08-16T20:51:04.263Z,101814.06
2023-08-16T20:56:37.749Z,101800.88
2023-08-16T21:00:14.527Z,101772.88
2023-08-16T21:02:48.154Z,101731.28
2023-08-16T21:06:37.265Z,101733.56
2023-08-16T21:08:32.296Z,101724.63
2023-08-16T21:16:37.760Z,101667.75
2023-08-16T21:19:05.083Z,101667.75
2023-08-16T21:21:43.518Z,101669.41
2023-08-16T21:24:12.914Z,101671.50
2023-08-16T21:26:50.777Z,101661.91
2023-08-16T21:32:23.060Z,101664.41
2023-08-16T21:34:52.805Z,101650.44
2023-08-16T21:37:19.377Z,101652.69
2023-08-16T21:39:47.202Z,101635.66
2023-08-16T21:42:16.683Z,101644.28
2023-08-16T21:45:04.961Z,101641.41
2023-08-16T21:48:07.754Z,101630.09
2023-08-16T21:51:09.722Z,101610.56
2023-08-16T21:53:36.381Z,101613.66
2023-08-16T21:56:09.489Z,101595.59
2023-08-16T21:58:36.039Z,101598.25
2023-08-16T22:01:08.578Z,101595.19
2023-08-16T22:03:35.313Z,101583.88
2023-08-16T22:06:07.705Z,101570.94
2023-08-16T22:11:39.104Z,101539.69
2023-08-16T22:14:05.789Z,101540.13
2023-08-16T22:16:35.371Z,101529.63
2023-08-16T22:19:02.067Z,101517.94
2023-08-16T22:21:41.772Z,101504.78
2023-08-16T22:27:07.771Z,101488.53
2023-08-16T22:30:45.767Z,101483.19
2023-08-16T22:33:12.354Z,101455.88
2023-08-16T22:35:38.922Z,101456.69
2023-08-16T22:41:36.562Z,101427.94
2023-08-16T22:44:03.269Z,101414.13
2023-08-16T22:46:31.593Z,101404.44
2023-08-16T22:48:58.181Z,101386.34
2023-08-16T22:51:52.322Z,101345.44
2023-08-16T22:54:54.479Z,101321.41
2023-08-16T23:00:36.570Z,101314.75
2023-08-16T23:04:10.540Z,101296.69
2023-08-16T23:09:06.564Z,101300.81
2023-08-16T23:11:33.098Z,101294.06
2023-08-16T23:13:59.674Z,101289.69
2023-08-16T23:16:26.424Z,101257.97
2023-08-16T23:19:12.977Z,101272.69
2023-08-16T23:22:00.925Z,101256.34
2023-08-16T23:27:19.570Z,101251.56
2023-08-16T23:29:49.155Z,101255.25
2023-08-16T23:32:23.185Z,101249.28
2023-08-16T23:34:52.603Z,101232.09
2023-08-16T23:47:30.835Z,101224.50
2023-08-16T23:52:37.840Z,101210.13
2023-08-16T23:55:05.472Z,101216.31
2023-08-16T23:57:32.042Z,101203.16
